createdAt,value
2023-05-14T00:01:31.084Z,101451.97
2023-05-14T00:03:59.868Z,101446.69
2023-05-14T00:06:26.732Z,101451.22
2023-05-14T00:08:53.607Z,101450.38
2023-05-14T00:11:21.286Z,101447.78
2023-05-14T00:13:48.079Z,101443.34
2023-05-14T00:16:14.961Z,101445.22
2023-05-14T00:18:42.125Z,101449.72
2023-05-14T00:21:08.922Z,101445.34
2023-05-14T00:23:35.751Z,101445.44
2023-05-14T00:26:02.532Z,101449.94
2023-05-14T00:28:29.308Z,101441.97
2023-05-14T00:30:57.077Z,101438.47
2023-05-14T00:33:23.929Z,101434.06
2023-05-14T00:35:51.533Z,101435.88
2023-05-14T00:38:19.342Z,101438.63
2023-05-14T00:43:20.094Z,101431.59
2023-05-14T00:45:51.012Z,101436.97
2023-05-14T00:48:18.368Z,101432.53
2023-05-14T00:50:47.916Z,101425.47
2023-05-14T00:53:14.912Z,101432.69
2023-05-14T00:55:42.601Z,101438.09
2023-05-14T00:58:14.012Z,101436.38
2023-05-14T01:00:42.343Z,101438.25
2023-05-14T01:03:09.854Z,101436.56
2023-05-14T01:06:17.418Z,101441.16
2023-05-14T01:09:32.286Z,101438.59
2023-05-14T01:12:23.982Z,101440.44
2023-05-14T01:15:17.898Z,101441.41
2023-05-14T01:17:57.209Z,101438.81
2023-05-14T01:20:26.702Z,101445.09
2023-05-14T01:22:53.516Z,101445.16
2023-05-14T01:25:20.426Z,101435.38
2023-05-14T01:28:02.026Z,101437.28
2023-05-14T01:30:36.744Z,101436.41
2023-05-14T01:33:13.707Z,101439.16
2023-05-14T01:35:40.984Z,101433.88
2023-05-14T01:38:11.898Z,101438.41
2023-05-14T01:40:39.209Z,101430.41
2023-05-14T01:43:06.387Z,101430.47
2023-05-14T01:45:36.554Z,101428.75
2023-05-14T01:48:05.074Z,101432.38
2023-05-14T01:50:31.937Z,101431.53
2023-05-14T01:52:58.831Z,101430.69
2023-05-14T01:55:25.872Z,101426.31
2023-05-14T01:57:53.027Z,101429.91
2023-05-14T02:00:22.250Z,101426.41
2023-05-14T02:02:49.174Z,101422.00
2023-05-14T02:05:16.030Z,101429.22
2023-05-14T02:07:42.789Z,101423.00
2023-05-14T02:10:10.024Z,101419.50
2023-05-14T02:12:36.890Z,101424.03
2023-05-14T02:15:04.655Z,101423.19
2023-05-14T02:17:31.456Z,101420.53
2023-05-14T02:19:58.338Z,101424.16
2023-05-14T02:22:25.131Z,101417.91
2023-05-14T02:24:51.943Z,101423.31
2023-05-14T02:27:18.764Z,101416.25
2023-05-14T02:29:45.580Z,101418.03
2023-05-14T02:32:12.422Z,101417.22
2023-05-14T02:34:39.253Z,101409.25
2023-05-14T02:37:06.076Z,101418.19
2023-05-14T02:39:32.963Z,101420.91
2023-05-14T02:41:59.788Z,101418.25
2023-05-14T02:44:26.595Z,101415.63
2023-05-14T02:46:53.411Z,101412.97
2023-05-14T02:49:20.204Z,101410.34
2023-05-14T02:51:46.976Z,101415.72
2023-05-14T02:54:13.734Z,101413.09
2023-05-14T02:56:40.527Z,101409.53
2023-05-14T02:59:07.343Z,101403.34
2023-05-14T03:01:34.650Z,101410.50
2023-05-14T03:04:01.906Z,101414.13
2023-05-14T03:06:28.726Z,101399.03
2023-05-14T03:08:55.533Z,101407.97
2023-05-14T03:11:22.322Z,101407.09
2023-05-14T03:13:49.162Z,101405.38
2023-05-14T03:16:16.329Z,101407.19
2023-05-14T03:18:43.197Z,101411.69
2023-05-14T03:21:10.011Z,101403.69
2023-05-14T03:23:36.786Z,101404.63
2023-05-14T03:26:04.845Z,101403.75
2023-05-14T03:28:31.682Z,101406.47
2023-05-14T03:30:58.612Z,101401.13
2023-05-14T03:33:25.667Z,101405.63
2023-05-14T03:35:52.492Z,101402.97
2023-05-14T03:38:19.266Z,101402.97
2023-05-14T03:40:46.379Z,101405.66
2023-05-14T03:43:13.145Z,101408.38
2023-05-14T03:45:40.393Z,101402.13
2023-05-14T03:48:07.286Z,101398.59
2023-05-14T03:50:34.233Z,101396.84
2023-05-14T03:53:01.057Z,101397.75
2023-05-14T03:55:27.830Z,101398.63
2023-05-14T03:57:54.623Z,101396.91
2023-05-14T04:00:21.889Z,101398.69
2023-05-14T04:02:48.865Z,101396.91
2023-05-14T04:05:15.972Z,101401.38
2023-05-14T04:07:42.741Z,101393.34
2023-05-14T04:10:09.871Z,101392.50
2023-05-14T04:12:36.695Z,101402.28
2023-05-14T04:15:03.937Z,101401.38
2023-05-14T04:17:30.782Z,101391.59
2023-05-14T04:19:57.663Z,101402.28
2023-05-14T04:22:24.425Z,101404.03
2023-05-14T04:24:51.638Z,101400.47
2023-05-14T04:27:22.115Z,101389.78
2023-05-14T04:29:50.525Z,101395.13
2023-05-14T04:32:18.019Z,101390.66
2023-05-14T04:34:45.075Z,101393.34
2023-05-14T04:37:14.400Z,101389.72
2023-05-14T04:39:41.411Z,101391.50
2023-05-14T04:42:08.316Z,101401.31
2023-05-14T04:44:36.600Z,101390.59
2023-05-14T04:47:06.988Z,101391.50
2023-05-14T04:49:33.859Z,101387.88
2023-05-14T04:52:01.477Z,101387.88
2023-05-14T04:54:28.312Z,101392.28
2023-05-14T04:56:55.870Z,101390.44
2023-05-14T04:59:22.812Z,101388.63
2023-05-14T05:01:49.823Z,101396.59
2023-05-14T05:04:16.702Z,101391.19
2023-05-14T05:06:43.553Z,101384.00
2023-05-14T05:09:10.373Z,101384.81
2023-05-14T05:11:37.829Z,101370.50
2023-05-14T05:14:04.672Z,101377.59
2023-05-14T05:16:31.528Z,101382.84
2023-05-14T05:18:58.349Z,101382.78
2023-05-14T05:21:25.569Z,101380.03
2023-05-14T05:23:52.345Z,101386.19
2023-05-14T05:26:19.423Z,101394.16
2023-05-14T05:28:46.236Z,101393.13
2023-05-14T05:31:13.166Z,101395.72
2023-05-14T05:33:40.113Z,101399.16
2023-05-14T05:36:07.190Z,101391.03
2023-05-14T05:38:33.976Z,101382.03
2023-05-14T05:41:00.872Z,101388.09
2023-05-14T05:43:28.589Z,101392.47
2023-05-14T05:45:55.436Z,101384.38
2023-05-14T05:48:22.257Z,101383.41
2023-05-14T05:50:50.243Z,101387.78
2023-05-14T05:53:17.056Z,101381.53
2023-05-14T05:55:44.047Z,101389.50
2023-05-14T05:58:11.102Z,101382.31
2023-05-14T06:00:38.038Z,101383.97
2023-05-14T06:03:04.846Z,101379.31
2023-05-14T06:05:31.718Z,101375.47
2023-05-14T06:07:58.558Z,101378.88
2023-05-14T06:10:25.641Z,101381.41
2023-05-14T06:12:52.589Z,101383.09
2023-05-14T06:15:19.505Z,101379.34
2023-05-14T06:17:46.402Z,101380.13
2023-05-14T06:20:13.351Z,101373.69
2023-05-14T06:22:40.260Z,101374.47
2023-05-14T06:25:08.013Z,101375.16
2023-05-14T06:27:34.829Z,101376.78
2023-05-14T06:30:01.576Z,101377.50
2023-05-14T06:32:28.421Z,101385.38
2023-05-14T06:34:55.228Z,101377.16
2023-05-14T06:37:22.065Z,101376.16
2023-05-14T06:39:50.368Z,101381.38
2023-05-14T06:42:17.914Z,101379.47
2023-05-14T06:44:45.221Z,101384.72
2023-05-14T06:47:12.302Z,101366.69
2023-05-14T06:49:39.535Z,101368.31
2023-05-14T06:52:06.772Z,101373.59
2023-05-14T06:54:33.616Z,101371.72
2023-05-14T06:57:00.445Z,101369.84
2023-05-14T06:59:27.304Z,101372.34
2023-05-14T07:01:54.208Z,101366.78
2023-05-14T07:04:21.090Z,101362.97
2023-05-14T07:06:47.931Z,101365.41
2023-05-14T07:09:16.138Z,101361.56
2023-05-14T07:11:42.958Z,101363.16
2023-05-14T07:14:09.761Z,101360.31
2023-05-14T07:16:36.993Z,101357.41
2023-05-14T07:19:03.820Z,101360.75
2023-05-14T07:21:31.702Z,101349.78
2023-05-14T07:23:58.537Z,101355.84
2023-05-14T07:26:26.294Z,101360.13
2023-05-14T07:28:53.118Z,101345.56
2023-05-14T07:31:19.994Z,101348.91
2023-05-14T07:33:46.857Z,101348.63
2023-05-14T07:36:13.668Z,101346.56
2023-05-14T07:38:40.433Z,101346.31
2023-05-14T07:41:07.758Z,101339.84
2023-05-14T07:43:34.533Z,101333.19
2023-05-14T07:46:01.440Z,101334.69
2023-05-14T07:48:28.310Z,101330.75
2023-05-14T07:50:55.215Z,101338.56
2023-05-14T07:53:22.168Z,101333.88
2023-05-14T07:55:49.420Z,101323.81
2023-05-14T07:58:16.615Z,101331.69
2023-05-14T08:00:43.419Z,101327.00
2023-05-14T08:03:10.310Z,101322.31
2023-05-14T08:05:37.238Z,101328.34
2023-05-14T08:08:04.150Z,101323.59
2023-05-14T08:10:31.229Z,101320.75
2023-05-14T08:12:58.062Z,101322.34
2023-05-14T08:15:27.578Z,101316.75
2023-05-14T08:17:54.950Z,101317.50
2023-05-14T08:20:22.493Z,101308.31
2023-05-14T08:22:49.496Z,101317.97
2023-05-14T08:25:16.326Z,101311.47
2023-05-14T08:27:43.139Z,101315.81
2023-05-14T08:30:10.485Z,101307.63
2023-05-14T08:32:38.457Z,101309.28
2023-05-14T08:35:06.029Z,101303.75
2023-05-14T08:37:32.841Z,101305.41
2023-05-14T08:39:59.828Z,101303.53
2023-05-14T08:42:27.262Z,101303.31
2023-05-14T08:45:01.535Z,101302.25
2023-05-14T08:47:30.610Z,101301.09
2023-05-14T08:50:08.257Z,101293.56
2023-05-14T08:52:35.974Z,101293.44
2023-05-14T08:55:06.875Z,101289.69
2023-05-14T08:57:34.669Z,101294.00
2023-05-14T09:00:08.281Z,101284.94
2023-05-14T09:02:36.769Z,101287.44
2023-05-14T09:05:04.294Z,101281.84
2023-05-14T09:07:31.471Z,101275.25
2023-05-14T09:09:58.960Z,101272.38
2023-05-14T09:12:26.157Z,101274.78
2023-05-14T09:14:52.981Z,101273.56
2023-05-14T09:17:20.139Z,101277.97
2023-05-14T09:19:49.202Z,101266.25
2023-05-14T09:22:18.068Z,101273.34
2023-05-14T09:24:46.156Z,101267.75
2023-05-14T09:27:20.656Z,101259.47
2023-05-14T09:29:48.233Z,101261.00
2023-05-14T09:32:15.046Z,101257.22
2023-05-14T09:34:42.217Z,101248.91
2023-05-14T09:37:10.035Z,101255.09
2023-05-14T09:39:38.588Z,101246.97
2023-05-14T09:42:05.798Z,101247.63
2023-05-14T09:44:32.700Z,101249.94
2023-05-14T09:46:59.572Z,101240.53
2023-05-14T09:49:26.395Z,101240.22
2023-05-14T09:51:53.446Z,101231.81
2023-05-14T09:54:20.315Z,101236.03
2023-05-14T09:56:47.177Z,101233.03
2023-05-14T09:59:14.048Z,101221.88
2023-05-14T10:01:43.588Z,101218.16
2023-05-14T10:04:11.913Z,101213.41
2023-05-14T10:06:40.099Z,101212.31
2023-05-14T10:09:13.925Z,101229.13
2023-05-14T10:11:45.299Z,101221.75
2023-05-14T10:14:20.787Z,101217.00
2023-05-14T10:16:50.948Z,101213.97
2023-05-14T10:19:21.047Z,101215.75
2023-05-14T10:22:05.790Z,101207.72
2023-05-14T10:24:33.331Z,101201.56
2023-05-14T10:27:00.764Z,101202.00
2023-05-14T10:29:38.055Z,101204.25
2023-05-14T10:32:08.178Z,101216.25
2023-05-14T10:34:46.317Z,101202.88
2023-05-14T10:37:27.206Z,101205.56
2023-05-14T10:40:02.862Z,101207.41
2023-05-14T10:42:40.918Z,101208.28
2023-05-14T10:45:13.188Z,101206.31
2023-05-14T10:47:43.498Z,101194.41
2023-05-14T10:50:13.131Z,101196.81
2023-05-14T10:52:45.238Z,101199.16
2023-05-14T10:55:16.809Z,101193.59
2023-05-14T10:57:47.084Z,101197.91
2023-05-14T11:00:15.034Z,101197.75
2023-05-14T11:02:44.223Z,101197.47
2023-05-14T11:05:17.557Z,101190.88
2023-05-14T11:07:47.982Z,101196.13
2023-05-14T11:10:17.466Z,101193.38
2023-05-14T11:12:49.716Z,101178.00
2023-05-14T11:15:18.977Z,101177.00
2023-05-14T11:17:47.133Z,101170.50
2023-05-14T11:20:14.794Z,101183.72
2023-05-14T11:22:43.030Z,101174.66
2023-05-14T11:25:14.277Z,101169.25
2023-05-14T11:27:43.331Z,101172.09
2023-05-14T11:30:18.858Z,101157.78
2023-05-14T11:32:48.476Z,101156.16
2023-05-14T11:35:16.737Z,101155.06
2023-05-14T11:37:50.192Z,101153.78
2023-05-14T11:40:17.334Z,101147.25
2023-05-14T11:42:44.440Z,101140.66
2023-05-14T11:45:12.814Z,101140.44
2023-05-14T11:47:42.574Z,101137.44
2023-05-14T11:50:10.216Z,101133.59
2023-05-14T11:52:41.614Z,101122.44
2023-05-14T11:55:14.550Z,101132.97
2023-05-14T11:57:41.411Z,101127.22
2023-05-14T12:00:14.387Z,101129.47
2023-05-14T12:02:41.355Z,101115.59
2023-05-14T12:05:09.076Z,101113.34
2023-05-14T12:07:36.317Z,101112.84
2023-05-14T12:10:04.290Z,101109.75
2023-05-14T12:12:36.537Z,101102.06
2023-05-14T12:15:14.845Z,101106.03
2023-05-14T12:17:41.924Z,101104.91
2023-05-14T12:20:10.960Z,101091.97
2023-05-14T12:22:37.800Z,101080.53
2023-05-14T12:25:09.890Z,101089.91
2023-05-14T12:27:38.009Z,101087.28
2023-05-14T12:30:20.705Z,101070.56
2023-05-14T12:32:51.696Z,101074.66
2023-05-14T12:35:19.048Z,101063.38
2023-05-14T12:37:45.992Z,101071.84
2023-05-14T12:40:13.146Z,101068.72
2023-05-14T12:42:40.177Z,101070.28
2023-05-14T12:45:08.463Z,101062.72
2023-05-14T12:47:36.785Z,101057.78
2023-05-14T12:50:04.675Z,101054.63
2023-05-14T12:55:01.511Z,101049.41
2023-05-14T12:57:29.712Z,101045.25
2023-05-14T12:59:57.752Z,101050.13
2023-05-14T13:02:24.574Z,101052.03
2023-05-14T13:04:51.340Z,101064.84
2023-05-14T13:07:18.419Z,101059.50
2023-05-14T13:09:46.811Z,101054.84
2023-05-14T13:12:13.638Z,101051.75
2023-05-14T13:14:40.435Z,101055.19
2023-05-14T13:17:08.123Z,101042.16
2023-05-14T13:19:35.149Z,101059.78
2023-05-14T13:22:01.954Z,101051.25
2023-05-14T13:24:28.762Z,101044.28
2023-05-14T13:26:55.572Z,101052.59
2023-05-14T13:29:22.377Z,101037.09
2023-05-14T13:31:49.190Z,101045.28
2023-05-14T13:34:15.995Z,101041.53
2023-05-14T13:36:43.518Z,101040.16
2023-05-14T13:39:13.109Z,101030.53
2023-05-14T13:41:41.130Z,101046.13
2023-05-14T13:44:07.910Z,101041.16
2023-05-14T13:46:34.853Z,101045.47
2023-05-14T13:49:01.774Z,101034.44
2023-05-14T13:51:28.556Z,101026.91
2023-05-14T13:56:27.055Z,101023.25
2023-05-14T13:58:54.159Z,101030.59
2023-05-14T14:01:21.776Z,101020.63
2023-05-14T14:03:49.121Z,101011.59
2023-05-14T14:06:15.911Z,101005.91
2023-05-14T14:08:42.708Z,101006.53
2023-05-14T14:11:09.548Z,101007.22
2023-05-14T14:13:37.235Z,101001.63
2023-05-14T14:16:04.340Z,101004.34
2023-05-14T14:18:31.146Z,101012.75
2023-05-14T14:20:58.321Z,100992.28
2023-05-14T14:23:25.148Z,100990.69
2023-05-14T14:25:51.928Z,100998.22
2023-05-14T14:28:19.057Z,100989.53
2023-05-14T14:30:45.878Z,101000.63
2023-05-14T14:33:12.694Z,101001.69
2023-05-14T14:35:39.675Z,100996.47
2023-05-14T14:38:08.774Z,100994.69
2023-05-14T14:40:35.644Z,100995.59
2023-05-14T14:43:02.504Z,100994.69
2023-05-14T14:45:29.408Z,100984.72
2023-05-14T14:48:25.297Z,100977.38
2023-05-14T14:50:52.737Z,100984.38
2023-05-14T14:53:21.318Z,100981.50
2023-05-14T14:55:51.701Z,100975.97
2023-05-14T14:58:19.863Z,100980.38
2023-05-14T15:00:47.468Z,100978.44
2023-05-14T15:03:15.248Z,100981.16
2023-05-14T15:05:42.365Z,100974.78
2023-05-14T15:08:09.299Z,100977.41
2023-05-14T15:10:41.074Z,100971.91
2023-05-14T15:13:10.251Z,100979.25
2023-05-14T15:15:37.416Z,100972.19
2023-05-14T15:18:04.875Z,100967.75
2023-05-14T15:20:34.354Z,100983.25
2023-05-14T15:23:01.233Z,100976.22
2023-05-14T15:25:28.403Z,100971.78
2023-05-14T15:27:55.229Z,100962.88
2023-05-14T15:30:23.136Z,100962.88
2023-05-14T15:32:49.961Z,100969.34
2023-05-14T15:35:16.996Z,100969.50
2023-05-14T15:37:45.058Z,100967.59
2023-05-14T15:40:12.560Z,100963.03
2023-05-14T15:42:42.632Z,100969.34
2023-05-14T15:45:12.269Z,100955.69
2023-05-14T15:47:40.081Z,100956.56
2023-05-14T15:50:08.203Z,100952.00
2023-05-14T15:52:36.165Z,100952.00
2023-05-14T15:55:04.651Z,100944.84
2023-05-14T15:57:31.670Z,100942.25
2023-05-14T15:59:58.512Z,100934.19
2023-05-14T16:02:25.721Z,100937.09
2023-05-14T16:04:52.690Z,100934.53
2023-05-14T16:07:19.469Z,100929.28
2023-05-14T16:09:46.271Z,100924.81
2023-05-14T16:12:14.209Z,100923.25
2023-05-14T16:14:45.158Z,100929.63
2023-05-14T16:17:12.090Z,100920.72
2023-05-14T16:19:39.572Z,100922.63
2023-05-14T16:22:15.086Z,100911.91
2023-05-14T16:24:42.091Z,100914.78
2023-05-14T16:27:08.882Z,100917.59
2023-05-14T16:29:35.621Z,100917.75
2023-05-14T16:32:05.976Z,100913.38
2023-05-14T16:34:32.798Z,100918.00
2023-05-14T16:36:59.876Z,100912.78
2023-05-14T16:39:26.859Z,100920.97
2023-05-14T16:41:53.621Z,100911.13
2023-05-14T16:44:20.355Z,100910.31
2023-05-14T16:46:48.010Z,100911.28
2023-05-14T16:49:14.832Z,100904.97
2023-05-14T16:51:45.112Z,100904.13
2023-05-14T16:54:14.971Z,100903.25
2023-05-14T16:56:42.068Z,100909.56
2023-05-14T16:59:08.833Z,100907.81
2023-05-14T17:01:36.137Z,100903.25
2023-05-14T17:04:02.998Z,100901.31
2023-05-14T17:06:29.818Z,100903.94
2023-05-14T17:08:56.579Z,100899.31
2023-05-14T17:11:23.365Z,100898.34
2023-05-14T17:13:50.143Z,100895.56
2023-05-14T17:16:17.119Z,100891.09
2023-05-14T17:18:46.878Z,100895.81
2023-05-14T17:21:13.777Z,100892.31
2023-05-14T17:23:42.292Z,100889.59
2023-05-14T17:26:09.245Z,100890.59
2023-05-14T17:28:36.054Z,100886.28
2023-05-14T17:31:02.838Z,100893.63
2023-05-14T17:33:29.706Z,100891.16
2023-05-14T17:35:56.502Z,100892.19
2023-05-14T17:38:24.800Z,100885.19
2023-05-14T17:40:51.553Z,100881.00
2023-05-14T17:43:18.706Z,100884.75
2023-05-14T17:45:53.991Z,100888.59
2023-05-14T17:48:23.042Z,100887.09
2023-05-14T17:50:51.602Z,100887.28
2023-05-14T17:53:18.513Z,100893.63
2023-05-14T17:55:45.396Z,100885.63
2023-05-14T17:58:15.157Z,100884.81
2023-05-14T18:00:42.600Z,100882.44
2023-05-14T18:03:10.323Z,100888.03
2023-05-14T18:05:37.405Z,100884.69
2023-05-14T18:08:04.257Z,100887.56
2023-05-14T18:10:31.058Z,100886.78
2023-05-14T18:12:57.879Z,100889.66
2023-05-14T18:15:25.736Z,100894.28
2023-05-14T18:17:53.085Z,100895.31
2023-05-14T18:20:20.088Z,100891.03
2023-05-14T18:22:46.874Z,100896.59
2023-05-14T18:25:13.789Z,100890.44
2023-05-14T18:27:44.403Z,100899.66
2023-05-14T18:30:14.392Z,100897.22
2023-05-14T18:32:43.584Z,100898.44
2023-05-14T18:35:11.566Z,100895.97
2023-05-14T18:37:38.505Z,100900.81
2023-05-14T18:40:06.897Z,100894.75
2023-05-14T18:42:37.066Z,100895.94
2023-05-14T18:45:04.526Z,100905.28
2023-05-14T18:47:32.671Z,100898.34
2023-05-14T18:50:03.112Z,100898.75
2023-05-14T18:52:29.930Z,100902.63
2023-05-14T18:54:56.736Z,100904.72
2023-05-14T18:57:23.578Z,100915.00
2023-05-14T18:59:50.384Z,100904.47
2023-05-14T19:02:17.220Z,100913.75
2023-05-14T19:04:52.385Z,100912.31
2023-05-14T19:07:29.729Z,100917.16
2023-05-14T19:09:56.495Z,100906.72
2023-05-14T19:12:23.304Z,100912.44
2023-05-14T19:14:50.044Z,100923.50
2023-05-14T19:17:18.557Z,100919.38
2023-05-14T19:19:47.250Z,100911.56
2023-05-14T19:22:14.078Z,100911.78
2023-05-14T19:24:40.973Z,100912.09
2023-05-14T19:27:08.491Z,100914.13
2023-05-14T19:29:39.360Z,100910.78
2023-05-14T19:32:06.895Z,100916.44
2023-05-14T19:34:33.724Z,100915.78
2023-05-14T19:37:00.590Z,100920.53
2023-05-14T19:39:27.869Z,100927.97
2023-05-14T19:41:54.668Z,100925.53
2023-05-14T19:44:21.445Z,100923.97
2023-05-14T19:46:48.287Z,100918.88
2023-05-14T19:49:15.123Z,100915.63
2023-05-14T19:51:41.886Z,100917.66
2023-05-14T19:54:09.184Z,100913.41
2023-05-14T19:56:36.016Z,100908.25
2023-05-14T19:59:02.815Z,100910.28
2023-05-14T20:01:29.669Z,100906.91
2023-05-14T20:03:57.385Z,100904.50
2023-05-14T20:06:24.161Z,100904.69
2023-05-14T20:08:51.461Z,100902.19
2023-05-14T20:11:19.490Z,100903.31
2023-05-14T20:13:46.387Z,100908.91
2023-05-14T20:16:16.569Z,100907.34
2023-05-14T20:18:44.423Z,100906.59
2023-05-14T20:21:11.534Z,100903.22
2023-05-14T20:23:38.366Z,100902.53
2023-05-14T20:26:05.132Z,100897.34
2023-05-14T20:28:31.943Z,100903.84
2023-05-14T20:31:00.082Z,100903.06
2023-05-14T20:33:28.922Z,100900.56
2023-05-14T20:35:55.820Z,100896.34
2023-05-14T20:38:23.418Z,100900.97
2023-05-14T20:40:50.383Z,100892.19
2023-05-14T20:43:17.226Z,100896.88
2023-05-14T20:45:44.020Z,100887.19
2023-05-14T20:48:12.739Z,100894.56
2023-05-14T20:50:39.491Z,100895.63
2023-05-14T20:53:06.300Z,100890.44
2023-05-14T20:55:33.209Z,100890.63
2023-05-14T20:58:00.055Z,100885.41
2023-05-14T21:00:26.900Z,100886.38
2023-05-14T21:02:53.749Z,100883.88
2023-05-14T21:05:20.914Z,100881.38
2023-05-14T21:07:48.041Z,100876.13
2023-05-14T21:10:14.888Z,100875.38
2023-05-14T21:12:42.725Z,100870.13
2023-05-14T21:15:10.883Z,100864.97
2023-05-14T21:17:37.799Z,100868.72
2023-05-14T21:20:04.986Z,100870.66
2023-05-14T21:22:31.761Z,100869.91
2023-05-14T21:24:58.583Z,100868.25
2023-05-14T21:27:26.512Z,100872.00
2023-05-14T21:29:53.332Z,100872.09
2023-05-14T21:32:22.133Z,100865.03
2023-05-14T21:34:49.200Z,100859.84
2023-05-14T21:37:16.070Z,100863.50
2023-05-14T21:39:42.854Z,100856.47
2023-05-14T21:42:09.867Z,100854.78
2023-05-14T21:44:36.708Z,100842.41
2023-05-14T21:47:04.282Z,100841.66
2023-05-14T21:49:31.073Z,100844.44
2023-05-14T21:51:57.872Z,100853.50
2023-05-14T21:54:24.646Z,100842.94
2023-05-14T21:56:51.456Z,100831.41
2023-05-14T21:59:18.252Z,100835.97
2023-05-14T22:02:05.510Z,100837.91
2023-05-14T22:04:31.904Z,100836.28
2023-05-14T22:06:58.734Z,100829.22
2023-05-14T22:09:25.834Z,100832.03
2023-05-14T22:11:52.657Z,100832.13
2023-05-14T22:14:19.449Z,100834.91
2023-05-14T22:16:46.318Z,100835.03
2023-05-14T22:19:13.292Z,100834.31
2023-05-14T22:21:40.192Z,100832.59
2023-05-14T22:24:07.467Z,100823.84
2023-05-14T22:26:35.082Z,100827.50
2023-05-14T22:29:01.941Z,100829.44
2023-05-14T22:31:29.242Z,100817.91
2023-05-14T22:33:56.133Z,100818.00
2023-05-14T22:36:23.121Z,100814.56
2023-05-14T22:38:49.934Z,100803.09
2023-05-14T22:41:17.609Z,100817.50
2023-05-14T22:43:44.476Z,100812.31
2023-05-14T22:46:11.318Z,100811.53
2023-05-14T22:48:38.156Z,100801.84
2023-05-14T22:51:05.173Z,100817.09
2023-05-14T22:53:31.968Z,100806.47
2023-05-14T22:55:58.818Z,100821.75
2023-05-14T22:58:25.563Z,100809.31
2023-05-14T23:00:52.447Z,100804.91
2023-05-14T23:03:19.215Z,100818.41
2023-05-14T23:05:46.010Z,100810.38
2023-05-14T23:08:12.808Z,100808.63
2023-05-14T23:10:39.605Z,100803.34
2023-05-14T23:13:06.375Z,100807.81
2023-05-14T23:15:33.285Z,100798.91
2023-05-14T23:18:00.282Z,100799.00
2023-05-14T23:20:27.210Z,100800.84
2023-05-14T23:22:54.117Z,100799.97
2023-05-14T23:25:20.973Z,100792.03
2023-05-14T23:27:48.166Z,100791.25
2023-05-14T23:30:14.985Z,100786.00
2023-05-14T23:32:41.775Z,100782.47
2023-05-14T23:35:08.977Z,100784.31
2023-05-14T23:37:41.500Z,100782.66
2023-05-14T23:40:09.588Z,100775.59
2023-05-14T23:42:36.384Z,100776.56
2023-05-14T23:45:03.388Z,100772.22
2023-05-14T23:47:30.325Z,100768.72
2023-05-14T23:49:57.294Z,100765.19
2023-05-14T23:52:24.076Z,100762.66
2023-05-14T23:54:50.815Z,100757.41
2023-05-14T23:57:17.612Z,100745.91
2023-05-14T23:59:44.387Z,100745.97
